Airfield :
LOGIN :

Register | Disclaimer

   EN    FR    IT 

 










Legend :    VFR   Marginal VFR   IFR   Intensive IFR   Very Intensive IFR
Visi :
Ceiling :
>= 8 km
>= 3000ft
5 to 8 km
1000 to 3000 ft
1500m to 5 km
500 to 1000 ft
800 to 1500m
200 to 500 ft
< 800m
< 200 ft
Symbols :   Thunderstorms  Fog  Heavy snow  Heavy precipitations  Wind > 20 kt
SIGMETs :     Misc.  Thunderstorms  Icing  Turbulence  Mountain Waves  Volcanic Ashes






- Airport Elevation : 236 ft
- IATA code : MMX


ESMS - Malmö Sturup

CURRENT METAR :
  • 292320Z 11006KT 9000 -DZ FEW008 SCT020 BKN047 13/13 Q1008

EXPIRED METARs :
  • 292250Z 12009KT 9999 -RA FEW061 SCT072 13/13 Q1008
  • 292220Z 12008KT 9999 FEW006 13/13 Q1008
  • 292150Z 12008KT 9999 DZ FEW022 SCT051 13/12 Q1008 RERA
  • 292120Z 11008KT 9999 FEW027 14/13 Q1009
  • 292050Z 12008KT 9999 -DZ FEW033 13/13 Q1009 RERA
  • 292020Z 12009KT 9999 -RA FEW010 SCT027 BKN038 14/13 Q1009
  • 291950Z 13008KT 9999 -RA SCT022 BKN070 14/12 Q1009 RERA
  • 291920Z 15009KT 9999 BKN022 15/11 Q1009
  • 291850Z 17011KT 9999 FEW020 SCT035 BKN045 15/11 Q1009

TAF TAF ESMS
Valid from the 29 at 21:00 until the 30 at 21:00 UTC


292003Z 2921/3021 13010KT 9999 SCT020 BKN040
TEMPO 2921/2924 4000 SHRA SCT012 BKN020CB
TEMPO 3000/3007 2000 SHRA BR BKN005 SCT020CB
TEMPO 3007/3010 BKN008 FEW020CB
TEMPO 3010/3021 SCT020CB



MET'MAP, your aeronautical weather chart ! - Copyright ORBIFLY December 2007 - Disclaimer

ORBIFLY MET'MAP TEAM :

Programming & Development : Alexandra Zaïnal
Original concept : Baudouin d'Aumeries
Technical & hardware support : Manuel Goepfert
Assistance : Marc-Olivier Méhu




SOURCES & CREDITS :

   NOAA